createdAt,value
2023-12-09T00:00:46.715Z,12.50
2023-12-09T00:03:15.037Z,12.52
2023-12-09T00:05:43.493Z,12.51
2023-12-09T00:08:11.740Z,12.54
2023-12-09T00:10:39.927Z,12.52
2023-12-09T00:13:08.099Z,12.56
2023-12-09T00:15:37.749Z,12.51
2023-12-09T00:18:06.005Z,12.50
2023-12-09T00:20:34.142Z,12.51
2023-12-09T00:23:02.453Z,12.52
2023-12-09T00:25:30.527Z,12.55
2023-12-09T00:27:58.734Z,12.60
2023-12-09T00:30:26.814Z,12.58
2023-12-09T00:32:56.892Z,12.58
2023-12-09T00:35:25.178Z,12.42
2023-12-09T00:37:53.425Z,12.40
2023-12-09T00:40:22.785Z,12.49
2023-12-09T00:42:51.140Z,12.44
2023-12-09T00:45:19.272Z,12.43
2023-12-09T00:47:47.583Z,12.46
2023-12-09T00:50:17.242Z,12.44
2023-12-09T00:52:45.461Z,12.41
2023-12-09T00:55:13.661Z,12.39
2023-12-09T00:57:42.033Z,12.43
2023-12-09T01:00:11.181Z,12.39
2023-12-09T01:02:40.197Z,12.36
2023-12-09T01:05:08.883Z,12.37
2023-12-09T01:07:38.775Z,12.42
2023-12-09T01:10:08.020Z,12.46
2023-12-09T01:12:36.748Z,12.49
2023-12-09T01:15:05.727Z,12.48
2023-12-09T01:17:33.976Z,12.44
2023-12-09T01:20:02.160Z,12.48
2023-12-09T01:22:30.523Z,12.42
2023-12-09T01:25:00.272Z,12.50
2023-12-09T01:27:28.453Z,12.58
2023-12-09T01:29:56.860Z,12.57
2023-12-09T01:32:25.428Z,12.58
2023-12-09T01:34:53.845Z,12.55
2023-12-09T01:37:22.294Z,12.61
2023-12-09T01:39:50.590Z,12.67
2023-12-09T01:42:20.473Z,12.61
2023-12-09T01:44:48.599Z,12.64
2023-12-09T01:47:17.091Z,12.58
2023-12-09T01:49:45.464Z,12.65
2023-12-09T01:52:14.055Z,12.60
2023-12-09T01:54:42.337Z,12.59
2023-12-09T01:57:10.678Z,12.64
2023-12-09T01:59:40.848Z,12.64
2023-12-09T02:02:09.709Z,12.68
2023-12-09T02:04:37.974Z,12.69
2023-12-09T02:07:06.271Z,12.63
2023-12-09T02:09:35.033Z,12.63
2023-12-09T02:12:08.834Z,12.62
2023-12-09T02:14:42.602Z,12.64
2023-12-09T02:17:15.597Z,12.69
2023-12-09T02:19:44.516Z,12.68
2023-12-09T02:22:12.890Z,12.72
2023-12-09T02:24:42.807Z,12.81
2023-12-09T02:27:13.970Z,12.85
2023-12-09T02:29:53.048Z,12.80
2023-12-09T02:32:23.205Z,12.82
2023-12-09T02:34:53.758Z,12.88
2023-12-09T02:37:23.768Z,12.99
2023-12-09T02:39:53.868Z,13.05
2023-12-09T02:42:22.558Z,12.98
2023-12-09T02:44:51.261Z,13.09
2023-12-09T02:47:19.352Z,13.14
2023-12-09T02:49:47.566Z,13.16
2023-12-09T02:52:15.881Z,13.18
2023-12-09T02:54:44.004Z,13.22
2023-12-09T02:57:13.902Z,13.26
2023-12-09T02:59:42.691Z,13.33
2023-12-09T03:02:10.861Z,13.37
2023-12-09T03:04:39.043Z,13.41
2023-12-09T03:07:07.293Z,13.39
2023-12-09T03:09:35.534Z,13.43
2023-12-09T03:12:03.846Z,13.54
2023-12-09T03:14:33.748Z,13.61
2023-12-09T03:17:01.855Z,13.66
2023-12-09T03:19:30.057Z,13.68
2023-12-09T03:21:58.252Z,13.72
2023-12-09T03:24:26.559Z,13.82
2023-12-09T03:26:55.558Z,13.89
2023-12-09T03:29:24.352Z,13.96
2023-12-09T03:31:53.987Z,14.02
2023-12-09T03:34:22.416Z,14.06
2023-12-09T03:36:50.711Z,14.13
2023-12-09T03:39:19.082Z,14.16
2023-12-09T03:41:47.421Z,14.21
2023-12-09T03:44:15.701Z,14.26
2023-12-09T03:46:43.915Z,14.32
2023-12-09T03:49:13.798Z,14.36
2023-12-09T03:51:42.162Z,14.35
2023-12-09T03:54:10.437Z,14.43
2023-12-09T03:56:38.920Z,14.51
2023-12-09T03:59:07.698Z,14.51
2023-12-09T04:01:36.811Z,14.52
2023-12-09T04:04:07.293Z,14.55
2023-12-09T04:06:37.306Z,14.60
2023-12-09T04:09:05.852Z,14.58
2023-12-09T04:11:34.303Z,14.63
2023-12-09T04:14:02.547Z,14.65
2023-12-09T04:16:30.916Z,14.63
2023-12-09T04:18:59.359Z,14.61
2023-12-09T04:21:27.715Z,14.66
2023-12-09T04:23:57.416Z,14.69
2023-12-09T04:26:26.566Z,14.72
2023-12-09T04:28:54.917Z,14.72
2023-12-09T04:31:23.160Z,14.72
2023-12-09T04:33:51.595Z,14.77
2023-12-09T04:36:20.291Z,14.78
2023-12-09T04:38:48.748Z,14.80
2023-12-09T04:41:18.584Z,14.79
2023-12-09T04:43:46.742Z,14.78
2023-12-09T04:46:15.008Z,14.76
2023-12-09T04:48:44.638Z,14.76
2023-12-09T04:51:13.092Z,14.83
2023-12-09T04:53:41.767Z,14.70
2023-12-09T04:56:11.245Z,14.61
2023-12-09T04:58:40.993Z,14.66
2023-12-09T05:01:09.916Z,14.68
2023-12-09T05:03:38.245Z,14.71
2023-12-09T05:06:07.163Z,14.77
2023-12-09T05:08:35.492Z,14.83
2023-12-09T05:11:03.853Z,14.85
2023-12-09T05:13:32.207Z,14.85
2023-12-09T05:16:01.862Z,14.84
2023-12-09T05:18:31.231Z,14.88
2023-12-09T05:20:59.673Z,14.89
2023-12-09T05:23:27.970Z,14.86
2023-12-09T05:25:56.504Z,14.89
2023-12-09T05:28:24.775Z,14.88
2023-12-09T05:30:52.987Z,14.91
2023-12-09T05:33:22.801Z,14.91
2023-12-09T05:35:51.181Z,14.89
2023-12-09T05:38:19.409Z,14.91
2023-12-09T05:40:48.026Z,14.90
2023-12-09T05:43:16.215Z,14.88
2023-12-09T05:45:44.658Z,14.87
2023-12-09T05:48:13.235Z,14.88
2023-12-09T05:50:43.022Z,14.85
2023-12-09T05:53:11.361Z,14.85
2023-12-09T05:55:39.540Z,14.87
2023-12-09T05:58:08.133Z,14.87
2023-12-09T06:00:37.231Z,14.84
2023-12-09T06:03:05.861Z,14.85
2023-12-09T06:05:34.330Z,14.77
2023-12-09T06:08:04.190Z,14.84
2023-12-09T06:10:32.361Z,14.86
2023-12-09T06:13:00.705Z,14.86
2023-12-09T06:15:28.921Z,14.87
2023-12-09T06:17:57.463Z,14.91
2023-12-09T06:20:25.870Z,14.92
2023-12-09T06:22:54.338Z,14.90
2023-12-09T06:25:24.017Z,14.92
2023-12-09T06:27:52.296Z,14.90
2023-12-09T06:30:21.656Z,14.90
2023-12-09T06:32:50.081Z,14.92
2023-12-09T06:35:18.330Z,14.91
2023-12-09T06:37:46.721Z,14.90
2023-12-09T06:40:15.175Z,14.85
2023-12-09T06:42:44.881Z,14.87
2023-12-09T06:45:13.237Z,14.90
2023-12-09T06:47:41.609Z,14.92
2023-12-09T06:50:10.286Z,14.91
2023-12-09T06:52:38.961Z,14.93
2023-12-09T06:55:08.011Z,14.92
2023-12-09T06:57:36.664Z,14.91
2023-12-09T07:00:09.515Z,14.93
2023-12-09T07:02:45.821Z,14.91
2023-12-09T07:05:22.332Z,14.89
2023-12-09T07:07:52.391Z,14.90
2023-12-09T07:10:21.073Z,14.87
2023-12-09T07:12:49.534Z,14.89
2023-12-09T07:15:19.343Z,14.90
2023-12-09T07:17:47.669Z,14.88
2023-12-09T07:20:16.177Z,14.91
2023-12-09T07:22:44.467Z,14.90
2023-12-09T07:25:12.683Z,14.89
2023-12-09T07:27:40.959Z,14.89
2023-12-09T07:30:10.310Z,14.90
2023-12-09T07:32:40.662Z,14.90
2023-12-09T07:35:09.602Z,14.84
2023-12-09T07:37:37.876Z,14.87
2023-12-09T07:40:07.437Z,14.89
2023-12-09T07:42:35.637Z,14.86
2023-12-09T07:45:04.014Z,14.88
2023-12-09T07:47:32.321Z,14.88
2023-12-09T07:50:02.197Z,14.86
2023-12-09T07:52:30.719Z,14.86
2023-12-09T07:54:58.996Z,14.88
2023-12-09T07:57:27.424Z,14.83
2023-12-09T07:59:55.739Z,14.88
2023-12-09T08:02:24.167Z,14.89
2023-12-09T08:04:52.607Z,14.88
2023-12-09T08:07:22.353Z,14.90
2023-12-09T08:09:50.590Z,14.90
2023-12-09T08:12:18.952Z,14.88
2023-12-09T08:14:47.295Z,14.85
2023-12-09T08:17:15.552Z,14.86
2023-12-09T08:19:43.886Z,14.86
2023-12-09T08:22:13.825Z,14.87
2023-12-09T08:24:44.792Z,14.87
2023-12-09T08:27:13.247Z,14.87
2023-12-09T08:29:41.595Z,14.89
2023-12-09T08:32:10.509Z,14.85
2023-12-09T08:34:38.931Z,14.85
2023-12-09T08:37:07.327Z,14.87
2023-12-09T08:39:39.919Z,14.85
2023-12-09T08:42:10.169Z,14.88
2023-12-09T08:44:39.310Z,14.86
2023-12-09T08:47:07.914Z,14.85
2023-12-09T08:49:36.321Z,14.85
2023-12-09T08:52:04.732Z,14.85
2023-12-09T08:54:33.051Z,14.86
2023-12-09T08:57:01.485Z,14.87
2023-12-09T08:59:31.250Z,14.87
2023-12-09T09:01:59.490Z,14.88
2023-12-09T09:04:27.932Z,14.89
2023-12-09T09:06:56.484Z,14.89
2023-12-09T09:09:24.879Z,14.90
2023-12-09T09:11:53.434Z,14.91
2023-12-09T09:14:21.687Z,14.87
2023-12-09T09:16:51.816Z,14.90
2023-12-09T09:19:20.278Z,14.93
2023-12-09T09:21:48.672Z,14.91
2023-12-09T09:24:16.996Z,14.88
2023-12-09T09:26:45.278Z,14.92
2023-12-09T09:29:13.837Z,14.86
2023-12-09T09:31:44.351Z,14.89
2023-12-09T09:34:14.387Z,14.90
2023-12-09T09:36:51.888Z,14.89
2023-12-09T09:39:21.327Z,14.89
2023-12-09T09:42:00.992Z,14.88
2023-12-09T09:44:31.433Z,14.88
2023-12-09T09:47:02.207Z,14.86
2023-12-09T09:49:34.174Z,14.89
2023-12-09T09:52:04.926Z,14.92
2023-12-09T09:54:33.981Z,14.94
2023-12-09T09:57:05.173Z,14.99
2023-12-09T09:59:34.583Z,15.03
2023-12-09T10:02:07.466Z,15.04
2023-12-09T10:04:38.336Z,15.06
2023-12-09T10:07:07.132Z,15.04
2023-12-09T10:09:36.192Z,15.01
2023-12-09T10:12:04.830Z,15.04
2023-12-09T10:14:33.244Z,15.04
2023-12-09T10:17:03.478Z,14.99
2023-12-09T10:19:31.932Z,14.99
2023-12-09T10:22:01.672Z,14.98
2023-12-09T10:24:30.267Z,14.99
2023-12-09T10:26:59.159Z,14.99
2023-12-09T10:29:30.733Z,15.00
2023-12-09T10:32:02.517Z,14.96
2023-12-09T10:34:31.690Z,14.96
2023-12-09T10:37:01.566Z,14.97
2023-12-09T10:39:30.940Z,14.98
2023-12-09T10:42:01.960Z,14.95
2023-12-09T10:44:30.325Z,14.98
2023-12-09T10:46:58.713Z,14.99
2023-12-09T10:49:27.421Z,14.97
2023-12-09T10:51:57.648Z,14.93
2023-12-09T10:54:27.516Z,14.77
2023-12-09T10:56:55.971Z,14.59
2023-12-09T10:59:27.000Z,14.55
2023-12-09T11:01:55.896Z,14.56
2023-12-09T11:04:24.318Z,14.51
2023-12-09T11:06:54.300Z,14.63
2023-12-09T11:09:23.037Z,14.69
2023-12-09T11:11:53.735Z,14.75
2023-12-09T11:14:27.288Z,14.80
2023-12-09T11:16:58.838Z,14.81
2023-12-09T11:19:27.905Z,14.85
2023-12-09T11:21:59.477Z,15.02
2023-12-09T11:24:32.723Z,15.13
2023-12-09T11:27:06.733Z,15.27
2023-12-09T11:29:36.266Z,15.33
2023-12-09T11:32:09.627Z,15.20
2023-12-09T11:34:40.758Z,15.16
2023-12-09T11:37:12.670Z,15.04
2023-12-09T11:39:43.289Z,14.92
2023-12-09T11:42:16.037Z,14.85
2023-12-09T11:44:44.657Z,14.75
2023-12-09T11:47:13.989Z,14.62
2023-12-09T11:49:43.819Z,14.47
2023-12-09T11:52:15.352Z,14.34
2023-12-09T11:54:43.712Z,14.18
2023-12-09T11:57:13.517Z,14.13
2023-12-09T11:59:41.823Z,14.14
2023-12-09T12:02:13.331Z,14.09
2023-12-09T12:04:41.668Z,14.14
2023-12-09T12:07:10.086Z,14.14
2023-12-09T12:09:40.121Z,14.25
2023-12-09T12:12:09.087Z,14.34
2023-12-09T12:14:39.179Z,14.40
2023-12-09T12:17:09.584Z,14.45
2023-12-09T12:19:38.162Z,14.41
2023-12-09T12:22:06.867Z,14.33
2023-12-09T12:24:42.622Z,14.24
2023-12-09T12:27:11.456Z,14.25
2023-12-09T12:29:42.187Z,14.27
2023-12-09T12:32:14.199Z,14.26
2023-12-09T12:34:46.509Z,14.14
2023-12-09T12:37:14.860Z,14.19
2023-12-09T12:39:43.543Z,14.18
2023-12-09T12:42:12.011Z,14.22
2023-12-09T12:44:44.657Z,14.18
2023-12-09T12:47:12.828Z,14.11
2023-12-09T12:49:41.029Z,14.19
2023-12-09T12:52:09.653Z,14.20
2023-12-09T12:54:37.956Z,14.22
2023-12-09T12:57:06.911Z,14.28
2023-12-09T12:59:35.162Z,14.39
2023-12-09T13:02:04.880Z,14.41
2023-12-09T13:04:33.306Z,14.50
2023-12-09T13:07:01.651Z,14.38
2023-12-09T13:09:30.144Z,14.39
2023-12-09T13:11:58.487Z,14.49
2023-12-09T13:14:26.707Z,14.51
2023-12-09T13:16:55.030Z,14.50
2023-12-09T13:19:24.844Z,14.49
2023-12-09T13:21:53.064Z,14.52
2023-12-09T13:24:21.365Z,14.43
2023-12-09T13:26:49.948Z,14.35
2023-12-09T13:29:18.405Z,14.23
2023-12-09T13:31:46.702Z,14.20
2023-12-09T13:34:15.012Z,14.24
2023-12-09T13:36:45.488Z,14.29
2023-12-09T13:39:15.521Z,14.18
2023-12-09T13:41:44.393Z,14.27
2023-12-09T13:44:13.705Z,14.20
2023-12-09T13:46:41.952Z,14.30
2023-12-09T13:49:10.342Z,14.12
2023-12-09T13:51:56.960Z,14.07
2023-12-09T13:54:26.830Z,14.21
2023-12-09T13:56:55.106Z,14.25
2023-12-09T13:59:23.384Z,14.27
2023-12-09T14:01:51.529Z,14.27
2023-12-09T14:04:20.299Z,14.29
2023-12-09T14:06:48.588Z,14.38
2023-12-09T14:09:16.924Z,14.30
2023-12-09T14:11:46.940Z,14.27
2023-12-09T14:14:15.141Z,14.36
2023-12-09T14:16:43.998Z,14.34
2023-12-09T14:19:12.861Z,14.30
2023-12-09T14:21:40.290Z,14.24
2023-12-09T14:24:09.828Z,14.35
2023-12-09T14:26:38.335Z,14.44
2023-12-09T14:29:08.140Z,14.39
2023-12-09T14:31:36.304Z,14.25
2023-12-09T14:34:04.739Z,14.25
2023-12-09T14:36:33.102Z,14.17
2023-12-09T14:39:01.749Z,14.21
2023-12-09T14:41:30.072Z,14.29
2023-12-09T14:44:03.502Z,14.36
2023-12-09T14:46:37.841Z,14.44
2023-12-09T14:49:06.576Z,14.48
2023-12-09T14:51:42.658Z,14.37
2023-12-09T14:54:14.253Z,14.34
2023-12-09T14:56:44.364Z,14.34
2023-12-09T14:59:13.279Z,14.29
2023-12-09T15:01:42.944Z,14.24
2023-12-09T15:04:11.581Z,14.22
2023-12-09T15:06:40.094Z,14.06
2023-12-09T15:09:11.417Z,14.06
2023-12-09T15:11:39.976Z,14.01
2023-12-09T15:14:08.339Z,13.97
2023-12-09T15:16:37.011Z,13.94
2023-12-09T15:19:09.359Z,13.91
2023-12-09T15:21:39.979Z,13.87
2023-12-09T15:24:08.818Z,13.84
2023-12-09T15:26:38.845Z,13.80
2023-12-09T15:29:07.825Z,13.75
2023-12-09T15:31:36.456Z,13.75
2023-12-09T15:34:08.887Z,13.69
2023-12-09T15:36:38.347Z,13.58
2023-12-09T15:39:06.822Z,13.67
2023-12-09T15:41:35.646Z,13.64
2023-12-09T15:44:04.198Z,13.65
2023-12-09T15:46:32.797Z,13.58
2023-12-09T15:49:02.288Z,13.56
2023-12-09T15:51:38.887Z,13.57
2023-12-09T15:54:09.190Z,13.52
2023-12-09T15:56:37.705Z,13.41
2023-12-09T15:59:08.196Z,13.21
2023-12-09T16:01:39.514Z,13.08
2023-12-09T16:04:08.509Z,12.86
2023-12-09T16:06:41.439Z,12.77
2023-12-09T16:09:14.116Z,12.58
2023-12-09T16:11:42.689Z,12.57
2023-12-09T16:14:16.849Z,12.54
2023-12-09T16:16:50.158Z,12.46
2023-12-09T16:19:23.044Z,12.39
2023-12-09T16:21:53.007Z,12.29
2023-12-09T16:24:28.344Z,12.23
2023-12-09T16:26:59.123Z,12.20
2023-12-09T16:29:30.134Z,12.16
2023-12-09T16:31:58.811Z,12.18
2023-12-09T16:34:27.188Z,12.15
2023-12-09T16:36:57.437Z,12.11
2023-12-09T16:39:26.598Z,12.13
2023-12-09T16:41:56.949Z,12.08
2023-12-09T16:44:27.129Z,12.08
2023-12-09T16:47:05.377Z,12.07
2023-12-09T16:49:34.165Z,12.03
2023-12-09T16:52:04.948Z,11.97
2023-12-09T16:54:36.247Z,12.01
2023-12-09T16:57:06.118Z,12.07
2023-12-09T16:59:34.486Z,12.04
2023-12-09T17:02:03.021Z,12.07
2023-12-09T17:04:36.596Z,12.05
2023-12-09T17:07:06.739Z,12.10
2023-12-09T17:09:35.377Z,12.14
2023-12-09T17:12:04.205Z,12.16
2023-12-09T17:14:34.674Z,12.25
2023-12-09T17:17:05.302Z,12.28
2023-12-09T17:19:33.980Z,12.33
2023-12-09T17:22:02.696Z,12.42
2023-12-09T17:24:32.962Z,12.48
2023-12-09T17:27:03.406Z,12.50
2023-12-09T17:29:31.843Z,12.40
2023-12-09T17:32:03.274Z,12.44
2023-12-09T17:34:32.155Z,12.42
2023-12-09T17:37:01.003Z,12.41
2023-12-09T17:39:32.842Z,12.51
2023-12-09T17:42:03.559Z,12.49
2023-12-09T17:44:35.636Z,12.48
2023-12-09T17:47:04.317Z,12.57
2023-12-09T17:49:32.800Z,12.58
2023-12-09T17:52:01.621Z,12.66
2023-12-09T17:54:39.252Z,12.68
2023-12-09T17:57:10.023Z,12.61
2023-12-09T17:59:40.394Z,12.64
2023-12-09T18:02:09.852Z,12.66
2023-12-09T18:04:40.263Z,12.63
2023-12-09T18:07:10.810Z,12.71
2023-12-09T18:09:39.673Z,12.70
2023-12-09T18:12:09.845Z,12.61
2023-12-09T18:14:38.317Z,12.60
2023-12-09T18:17:32.426Z,12.61
2023-12-09T18:20:01.989Z,12.64
2023-12-09T18:22:46.367Z,12.63
2023-12-09T18:25:20.122Z,12.71
2023-12-09T18:32:18.201Z,12.70
2023-12-09T18:34:56.185Z,12.71
2023-12-09T18:37:42.109Z,12.67
2023-12-09T18:43:37.942Z,12.75
2023-12-09T18:46:07.025Z,12.69
2023-12-09T18:48:44.122Z,12.71
2023-12-09T18:51:22.802Z,12.73
2023-12-09T18:53:51.150Z,12.80
2023-12-09T18:56:25.668Z,12.80
2023-12-09T18:59:01.593Z,12.78
2023-12-09T19:01:30.030Z,12.77
2023-12-09T19:04:01.745Z,12.79
2023-12-09T19:06:32.691Z,12.77
2023-12-09T19:09:06.154Z,12.72
2023-12-09T19:11:34.504Z,12.70
2023-12-09T19:14:04.142Z,12.58
2023-12-09T19:16:32.475Z,12.60
2023-12-09T19:19:00.862Z,12.61
2023-12-09T19:21:29.562Z,12.57
2023-12-09T19:23:57.830Z,12.60
2023-12-09T19:26:26.171Z,12.65
2023-12-09T19:28:54.667Z,12.69
2023-12-09T19:31:24.240Z,12.74
2023-12-09T19:33:52.607Z,12.74
2023-12-09T19:36:21.211Z,12.72
2023-12-09T19:38:49.600Z,12.70
2023-12-09T19:41:17.829Z,12.71
2023-12-09T19:43:46.106Z,12.67
2023-12-09T19:46:14.485Z,12.64
2023-12-09T19:48:44.146Z,12.72
2023-12-09T19:51:12.568Z,12.67
2023-12-09T19:53:40.833Z,12.62
2023-12-09T19:56:10.167Z,12.58
2023-12-09T19:58:38.295Z,12.48
2023-12-09T20:01:07.245Z,12.39
2023-12-09T20:07:37.770Z,12.30
2023-12-09T20:10:07.223Z,12.25
2023-12-09T20:12:35.448Z,12.22
2023-12-09T20:15:05.113Z,12.20
2023-12-09T20:17:33.420Z,12.19
2023-12-09T20:20:01.639Z,12.19
2023-12-09T20:22:30.146Z,12.16
2023-12-09T20:25:01.493Z,12.13
2023-12-09T20:27:30.273Z,12.14
2023-12-09T20:29:58.466Z,12.10
2023-12-09T20:32:27.148Z,12.02
2023-12-09T20:34:57.014Z,12.02
2023-12-09T20:37:25.419Z,12.06
2023-12-09T20:39:58.233Z,12.06
2023-12-09T20:42:28.373Z,12.05
2023-12-09T20:44:56.821Z,12.05
2023-12-09T20:47:25.110Z,12.02
2023-12-09T20:49:53.610Z,12.00
2023-12-09T20:52:21.738Z,11.98
2023-12-09T20:54:49.947Z,11.97
2023-12-09T20:57:18.439Z,11.97
2023-12-09T20:59:48.152Z,11.94
2023-12-09T21:02:17.202Z,11.93
2023-12-09T21:04:46.387Z,11.94
2023-12-09T21:07:14.610Z,11.95
2023-12-09T21:09:42.784Z,11.97
2023-12-09T21:12:10.982Z,11.98
2023-12-09T21:14:39.296Z,11.97
2023-12-09T21:17:09.660Z,11.95
2023-12-09T21:19:38.813Z,11.92
2023-12-09T21:22:08.140Z,11.91
2023-12-09T21:24:37.186Z,11.93
2023-12-09T21:27:05.827Z,11.96
2023-12-09T21:29:34.521Z,11.99
2023-12-09T21:32:02.661Z,12.00
2023-12-09T21:34:32.309Z,12.04
2023-12-09T21:37:00.471Z,12.08
2023-12-09T21:39:28.730Z,12.08
2023-12-09T21:41:56.862Z,12.12
2023-12-09T21:44:25.118Z,12.15
2023-12-09T21:46:53.239Z,12.15
2023-12-09T21:49:21.826Z,12.18
2023-12-09T21:51:52.012Z,12.20
2023-12-09T21:54:20.575Z,12.23
2023-12-09T21:56:48.724Z,12.23
2023-12-09T21:59:16.834Z,12.22
2023-12-09T22:01:45.725Z,12.24
2023-12-09T22:04:14.642Z,12.21
2023-12-09T22:06:43.186Z,12.23
2023-12-09T22:09:14.586Z,12.23
2023-12-09T22:11:43.009Z,12.24
2023-12-09T22:14:11.455Z,12.24
2023-12-09T22:16:39.620Z,12.26
2023-12-09T22:19:07.821Z,12.27
2023-12-09T22:21:40.568Z,12.28
2023-12-09T22:24:09.410Z,12.26
2023-12-09T22:26:45.340Z,12.24
2023-12-09T22:29:13.619Z,11.77
2023-12-09T22:31:43.223Z,12.05
2023-12-09T22:34:12.264Z,12.10
2023-12-09T22:36:41.084Z,12.09
2023-12-09T22:39:13.023Z,12.12
2023-12-09T22:41:41.453Z,12.20
2023-12-09T22:44:11.697Z,12.16
2023-12-09T22:46:39.979Z,12.17
2023-12-09T22:49:08.585Z,12.15
2023-12-09T22:51:37.309Z,12.14
2023-12-09T22:54:05.846Z,12.14
2023-12-09T22:56:34.117Z,12.15
2023-12-09T22:59:02.256Z,12.14
2023-12-09T23:01:34.167Z,12.14
2023-12-09T23:04:03.228Z,12.15
2023-12-09T23:06:31.620Z,12.16
2023-12-09T23:08:59.848Z,12.14
2023-12-09T23:11:28.016Z,12.15
2023-12-09T23:13:56.241Z,12.14
2023-12-09T23:16:24.459Z,12.13
2023-12-09T23:18:54.149Z,12.16
2023-12-09T23:21:22.480Z,12.12
2023-12-09T23:23:50.671Z,12.14
2023-12-09T23:26:18.823Z,12.13
2023-12-09T23:28:46.974Z,12.15
2023-12-09T23:31:18.058Z,12.15
2023-12-09T23:33:48.849Z,12.13
2023-12-09T23:36:18.708Z,12.15
2023-12-09T23:38:46.839Z,12.12
2023-12-09T23:41:15.924Z,12.13
2023-12-09T23:43:44.256Z,12.15
2023-12-09T23:46:16.266Z,12.14
2023-12-09T23:48:44.678Z,12.15
2023-12-09T23:51:13.139Z,12.16
2023-12-09T23:53:42.971Z,12.19
2023-12-09T23:56:11.576Z,12.18
2023-12-09T23:58:39.978Z,12.18
